Columbia, Illinois
Current Conditions -  °F | °C
As of 10:53 AM on Monday 22 Dec 2014 (Local Time) from KCPS Reporting Station
Light Rain Light Rain  
Wind Chill:   Ceiling: 600
Heat Index:   Visibility: 6mi
Dew Point:   Wind: 9mph
Humidity: 93%   Direction: 160°SSE
Pressure: 29.7"   Gusts: 17mph
Location:  38.44°N, 90.2°W
Report Text: KCPS 221653Z 16008G15KT 6SM -RA BR OVC006 08/07 A2970 RMK AO2 SLP059 P0002 T00780067 $
Loading
Personal Weather Stations






























Interactive Weather Map New forecast layout! Learn more

10-Day Weather Forecast

Advertisements
Track Severe Weather on mobile